sensor_id;sensor_type;location;lat;lon;timestamp;pressure;altitude;pressure_sealevel;temperature;humidity
30730;BME280;17476;48.458;7.928;2022-09-24T00:01:26;99668.56;;;14.83;75.20
30730;BME280;17476;48.458;7.928;2022-09-24T00:03:56;99665.72;;;14.78;75.75
30730;BME280;17476;48.458;7.928;2022-09-24T00:06:22;99672.59;;;14.72;76.17
30730;BME280;17476;48.458;7.928;2022-09-24T00:08:51;99650.28;;;14.68;76.53
30730;BME280;17476;48.458;7.928;2022-09-24T00:11:19;99645.44;;;14.71;76.33
30730;BME280;17476;48.458;7.928;2022-09-24T00:13:46;99640.97;;;14.65;76.44
30730;BME280;17476;48.458;7.928;2022-09-24T00:16:15;99641.38;;;14.69;76.03
30730;BME280;17476;48.458;7.928;2022-09-24T00:18:41;99653.34;;;14.71;75.86
30730;BME280;17476;48.458;7.928;2022-09-24T00:21:24;99649.50;;;14.74;75.56
30730;BME280;17476;48.458;7.928;2022-09-24T00:23:54;99649.50;;;14.74;75.59
30730;BME280;17476;48.458;7.928;2022-09-24T00:26:21;99641.00;;;14.72;75.74
30730;BME280;17476;48.458;7.928;2022-09-24T00:29:07;99639.19;;;14.72;75.16
30730;BME280;17476;48.458;7.928;2022-09-24T00:31:33;99636.09;;;14.69;75.27
30730;BME280;17476;48.458;7.928;2022-09-24T00:33:59;99631.03;;;14.61;75.53
30730;BME280;17476;48.458;7.928;2022-09-24T00:36:26;99632.41;;;14.50;76.52
30730;BME280;17476;48.458;7.928;2022-09-24T00:38:55;99635.97;;;14.42;76.66
30730;BME280;17476;48.458;7.928;2022-09-24T00:41:28;99633.94;;;14.38;77.24
30730;BME280;17476;48.458;7.928;2022-09-24T00:43:54;99626.63;;;14.33;77.64
30730;BME280;17476;48.458;7.928;2022-09-24T00:46:39;99631.09;;;14.33;77.47
30730;BME280;17476;48.458;7.928;2022-09-24T00:49:18;99622.41;;;14.39;77.53
30730;BME280;17476;48.458;7.928;2022-09-24T00:51:47;99618.63;;;14.48;77.26
30730;BME280;17476;48.458;7.928;2022-09-24T00:54:26;99625.72;;;14.47;77.06
30730;BME280;17476;48.458;7.928;2022-09-24T00:56:53;99613.31;;;14.41;77.15
30730;BME280;17476;48.458;7.928;2022-09-24T00:59:22;99609.25;;;14.39;77.44
30730;BME280;17476;48.458;7.928;2022-09-24T01:01:50;99606.06;;;14.43;76.82
30730;BME280;17476;48.458;7.928;2022-09-24T01:04:18;99602.06;;;14.54;76.82
30730;BME280;17476;48.458;7.928;2022-09-24T01:06:48;99606.75;;;14.59;77.00
30730;BME280;17476;48.458;7.928;2022-09-24T01:09:18;99608.13;;;14.55;76.52
30730;BME280;17476;48.458;7.928;2022-09-24T01:14:56;99612.81;;;14.18;78.60
30730;BME280;17476;48.458;7.928;2022-09-24T01:18:03;99616.72;;;13.94;80.21
30730;BME280;17476;48.458;7.928;2022-09-24T01:29:42;99601.88;;;13.80;80.55
30730;BME280;17476;48.458;7.928;2022-09-24T01:32:36;99603.13;;;13.84;80.60
30730;BME280;17476;48.458;7.928;2022-09-24T01:37:42;99591.34;;;14.14;79.84
30730;BME280;17476;48.458;7.928;2022-09-24T01:40:10;99606.75;;;14.17;79.41
30730;BME280;17476;48.458;7.928;2022-09-24T01:42:38;99603.34;;;14.24;78.66
30730;BME280;17476;48.458;7.928;2022-09-24T01:45:08;99598.44;;;14.20;79.42
30730;BME280;17476;48.458;7.928;2022-09-24T01:47:37;99597.84;;;14.18;79.26
30730;BME280;17476;48.458;7.928;2022-09-24T01:50:06;99603.47;;;14.15;79.00
30730;BME280;17476;48.458;7.928;2022-09-24T01:52:41;99600.63;;;14.10;79.78
30730;BME280;17476;48.458;7.928;2022-09-24T01:55:13;99601.47;;;14.17;79.48
30730;BME280;17476;48.458;7.928;2022-09-24T01:57:58;99589.72;;;14.13;78.89
30730;BME280;17476;48.458;7.928;2022-09-24T02:00:26;99587.31;;;14.18;78.89
30730;BME280;17476;48.458;7.928;2022-09-24T02:03:28;99591.19;;;14.23;78.33
30730;BME280;17476;48.458;7.928;2022-09-24T02:06:30;99597.56;;;14.07;79.24
30730;BME280;17476;48.458;7.928;2022-09-24T02:08:57;99591.09;;;14.03;79.34
30730;BME280;17476;48.458;7.928;2022-09-24T02:11:26;99588.50;;;14.09;79.16
30730;BME280;17476;48.458;7.928;2022-09-24T02:14:11;99577.97;;;14.09;78.80
30730;BME280;17476;48.458;7.928;2022-09-24T02:16:47;99582.88;;;14.19;78.51
30730;BME280;17476;48.458;7.928;2022-09-24T02:19:18;99580.47;;;14.24;78.28
30730;BME280;17476;48.458;7.928;2022-09-24T02:21:46;99580.47;;;14.24;77.81
30730;BME280;17476;48.458;7.928;2022-09-24T02:24:23;99580.44;;;14.17;78.08
30730;BME280;17476;48.458;7.928;2022-09-24T02:26:51;99585.69;;;14.17;78.66
30730;BME280;17476;48.458;7.928;2022-09-24T02:29:17;99575.16;;;14.11;78.14
30730;BME280;17476;48.458;7.928;2022-09-24T02:31:48;99583.63;;;14.06;79.24
30730;BME280;17476;48.458;7.928;2022-09-24T02:34:45;99579.13;;;14.00;79.09
30730;BME280;17476;48.458;7.928;2022-09-24T02:37:11;99567.47;;;14.09;78.90
30730;BME280;17476;48.458;7.928;2022-09-24T02:39:39;99577.34;;;14.07;78.97
30730;BME280;17476;48.458;7.928;2022-09-24T02:42:06;99573.69;;;14.08;78.84
30730;BME280;17476;48.458;7.928;2022-09-24T02:44:34;99574.09;;;14.05;79.30
30730;BME280;17476;48.458;7.928;2022-09-24T02:47:01;99563.63;;;14.12;79.32
30730;BME280;17476;48.458;7.928;2022-09-24T02:49:27;99572.09;;;14.07;79.49
30730;BME280;17476;48.458;7.928;2022-09-24T02:51:53;99572.91;;;14.08;79.42
30730;BME280;17476;48.458;7.928;2022-09-24T02:54:20;99565.25;;;14.13;79.42
30730;BME280;17476;48.458;7.928;2022-09-24T02:56:47;99571.06;;;14.08;79.42
30730;BME280;17476;48.458;7.928;2022-09-24T02:59:13;99566.63;;;14.02;80.45
30730;BME280;17476;48.458;7.928;2022-09-24T03:01:39;99580.38;;;14.04;79.42
30730;BME280;17476;48.458;7.928;2022-09-24T03:04:05;99573.34;;;14.11;79.54
30730;BME280;17476;48.458;7.928;2022-09-24T03:06:31;99576.34;;;14.08;79.85
30730;BME280;17476;48.458;7.928;2022-09-24T03:08:57;99573.72;;;14.15;79.58
30730;BME280;17476;48.458;7.928;2022-09-24T03:11:24;99576.56;;;14.13;80.55
30730;BME280;17476;48.458;7.928;2022-09-24T03:13:50;99573.91;;;14.07;81.36
30730;BME280;17476;48.458;7.928;2022-09-24T03:16:17;99574.28;;;13.97;81.25
30730;BME280;17476;48.458;7.928;2022-09-24T03:18:44;99570.06;;;14.03;80.40
30730;BME280;17476;48.458;7.928;2022-09-24T03:21:12;99567.44;;;14.03;81.23
30730;BME280;17476;48.458;7.928;2022-09-24T03:23:39;99562.75;;;13.98;80.74
30730;BME280;17476;48.458;7.928;2022-09-24T03:26:05;99567.00;;;13.99;81.36
30730;BME280;17476;48.458;7.928;2022-09-24T03:28:31;99563.75;;;13.97;80.81
30730;BME280;17476;48.458;7.928;2022-09-24T03:30:57;99559.31;;;13.98;80.75
30730;BME280;17476;48.458;7.928;2022-09-24T03:33:36;99558.09;;;14.00;80.55
30730;BME280;17476;48.458;7.928;2022-09-24T03:36:08;99558.09;;;14.00;80.26
30730;BME280;17476;48.458;7.928;2022-09-24T03:38:35;99566.63;;;14.02;79.99
30730;BME280;17476;48.458;7.928;2022-09-24T03:41:02;99553.03;;;13.99;79.96
30730;BME280;17476;48.458;7.928;2022-09-24T03:43:28;99554.09;;;14.04;80.08
30730;BME280;17476;48.458;7.928;2022-09-24T03:45:54;99554.47;;;14.01;80.62
30730;BME280;17476;48.458;7.928;2022-09-24T03:48:22;99541.31;;;14.01;79.68
30730;BME280;17476;48.458;7.928;2022-09-24T03:50:48;99540.31;;;14.09;79.40
30730;BME280;17476;48.458;7.928;2022-09-24T03:53:15;99537.16;;;14.20;79.78
30730;BME280;17476;48.458;7.928;2022-09-24T03:55:43;99535.94;;;14.16;80.44
30730;BME280;17476;48.458;7.928;2022-09-24T03:58:10;99536.28;;;14.06;81.18
30730;BME280;17476;48.458;7.928;2022-09-24T04:00:36;99529.63;;;14.04;81.18
30730;BME280;17476;48.458;7.928;2022-09-24T04:03:02;99513.19;;;14.02;80.69
30730;BME280;17476;48.458;7.928;2022-09-24T04:05:27;99519.28;;;14.02;82.09
30730;BME280;17476;48.458;7.928;2022-09-24T04:07:55;99520.28;;;14.01;81.39
30730;BME280;17476;48.458;7.928;2022-09-24T04:10:21;99522.31;;;14.06;81.35
30730;BME280;17476;48.458;7.928;2022-09-24T04:12:48;99513.41;;;14.00;81.07
30730;BME280;17476;48.458;7.928;2022-09-24T04:15:14;99515.66;;;14.03;80.71
30730;BME280;17476;48.458;7.928;2022-09-24T04:17:52;99506.97;;;14.09;80.71
30730;BME280;17476;48.458;7.928;2022-09-24T04:20:20;99510.59;;;14.08;80.17
30730;BME280;17476;48.458;7.928;2022-09-24T04:22:48;99518.69;;;14.07;80.04
30730;BME280;17476;48.458;7.928;2022-09-24T04:25:15;99514.66;;;14.11;80.50
30730;BME280;17476;48.458;7.928;2022-09-24T04:27:44;99514.25;;;14.07;79.89
30730;BME280;17476;48.458;7.928;2022-09-24T04:30:12;99509.63;;;14.09;80.19
30730;BME280;17476;48.458;7.928;2022-09-24T04:32:40;99512.66;;;14.13;79.27
30730;BME280;17476;48.458;7.928;2022-09-24T04:35:06;99508.63;;;14.17;80.21
30730;BME280;17476;48.458;7.928;2022-09-24T04:37:32;99510.44;;;14.16;81.08
30730;BME280;17476;48.458;7.928;2022-09-24T04:39:58;99501.13;;;14.14;80.48
30730;BME280;17476;48.458;7.928;2022-09-24T04:42:24;99506.41;;;14.20;80.93
30730;BME280;17476;48.458;7.928;2022-09-24T04:44:49;99506.81;;;14.24;80.98
30730;BME280;17476;48.458;7.928;2022-09-24T04:47:16;99509.28;;;14.32;81.83
30730;BME280;17476;48.458;7.928;2022-09-24T04:49:42;99500.78;;;14.37;81.35
30730;BME280;17476;48.458;7.928;2022-09-24T04:52:11;99509.69;;;14.42;81.54
30730;BME280;17476;48.458;7.928;2022-09-24T04:54:44;99502.63;;;14.43;80.60
30730;BME280;17476;48.458;7.928;2022-09-24T04:57:14;99503.28;;;14.52;81.28
30730;BME280;17476;48.458;7.928;2022-09-24T04:59:41;99508.13;;;14.61;81.07
30730;BME280;17476;48.458;7.928;2022-09-24T05:02:08;99505.72;;;14.60;80.36
30730;BME280;17476;48.458;7.928;2022-09-24T05:04:37;99509.38;;;14.65;81.20
30730;BME280;17476;48.458;7.928;2022-09-24T05:07:03;99502.88;;;14.68;80.55
30730;BME280;17476;48.458;7.928;2022-09-24T05:09:29;99500.88;;;14.70;80.70
30730;BME280;17476;48.458;7.928;2022-09-24T05:11:58;99502.09;;;14.67;80.15
30730;BME280;17476;48.458;7.928;2022-09-24T05:14:24;99497.63;;;14.68;80.31
30730;BME280;17476;48.458;7.928;2022-09-24T05:16:50;99499.66;;;14.72;80.67
30730;BME280;17476;48.458;7.928;2022-09-24T05:19:16;99494.78;;;14.76;79.87
30730;BME280;17476;48.458;7.928;2022-09-24T05:21:42;99497.44;;;14.83;81.35
30730;BME280;17476;48.458;7.928;2022-09-24T05:24:08;99499.88;;;14.84;79.33
30730;BME280;17476;48.458;7.928;2022-09-24T05:26:33;99499.06;;;14.90;80.51
30730;BME280;17476;48.458;7.928;2022-09-24T05:29:18;99510.41;;;14.91;80.60
30730;BME280;17476;48.458;7.928;2022-09-24T05:31:44;99514.66;;;14.92;80.41
30730;BME280;17476;48.458;7.928;2022-09-24T05:34:09;99513.66;;;14.93;79.80
30730;BME280;17476;48.458;7.928;2022-09-24T05:36:36;99517.69;;;14.95;79.79
30730;BME280;17476;48.458;7.928;2022-09-24T05:39:02;99517.69;;;15.02;79.93
30730;BME280;17476;48.458;7.928;2022-09-24T05:41:28;99518.13;;;15.06;80.29
30730;BME280;17476;48.458;7.928;2022-09-24T05:43:53;99516.06;;;15.01;80.47
30730;BME280;17476;48.458;7.928;2022-09-24T05:46:21;99518.31;;;15.04;81.17
30730;BME280;17476;48.458;7.928;2022-09-24T05:48:47;99517.47;;;15.03;81.34
30730;BME280;17476;48.458;7.928;2022-09-24T05:51:14;99522.34;;;15.00;81.04
30730;BME280;17476;48.458;7.928;2022-09-24T05:53:39;99523.97;;;15.08;80.99
30730;BME280;17476;48.458;7.928;2022-09-24T05:56:06;99530.66;;;15.10;81.39
30730;BME280;17476;48.458;7.928;2022-09-24T05:58:31;99532.28;;;15.11;80.22
30730;BME280;17476;48.458;7.928;2022-09-24T06:00:58;99531.88;;;15.14;81.11
30730;BME280;17476;48.458;7.928;2022-09-24T06:03:26;99523.97;;;15.14;80.79
30730;BME280;17476;48.458;7.928;2022-09-24T06:05:54;99517.91;;;15.20;80.68
30730;BME280;17476;48.458;7.928;2022-09-24T06:08:31;99521.94;;;15.23;80.23
30730;BME280;17476;48.458;7.928;2022-09-24T06:11:01;99521.34;;;15.27;81.41
30730;BME280;17476;48.458;7.928;2022-09-24T06:13:28;99517.28;;;15.32;81.21
30730;BME280;17476;48.458;7.928;2022-09-24T06:16:06;99523.16;;;15.34;80.74
30730;BME280;17476;48.458;7.928;2022-09-24T06:18:38;99517.66;;;15.42;81.03
30730;BME280;17476;48.458;7.928;2022-09-24T06:21:09;99517.66;;;15.42;80.91
30730;BME280;17476;48.458;7.928;2022-09-24T06:23:35;99521.53;;;15.46;80.95
30730;BME280;17476;48.458;7.928;2022-09-24T06:26:03;99522.13;;;15.48;79.85
30730;BME280;17476;48.458;7.928;2022-09-24T06:28:29;99528.19;;;15.55;79.98
30730;BME280;17476;48.458;7.928;2022-09-24T06:30:57;99525.97;;;15.59;80.04
30730;BME280;17476;48.458;7.928;2022-09-24T06:33:23;99529.00;;;15.55;79.96
30730;BME280;17476;48.458;7.928;2022-09-24T06:35:49;99533.47;;;15.62;79.59
30730;BME280;17476;48.458;7.928;2022-09-24T06:38:17;99536.09;;;15.68;79.47
30730;BME280;17476;48.458;7.928;2022-09-24T06:40:45;99537.31;;;15.72;79.32
30730;BME280;17476;48.458;7.928;2022-09-24T06:43:12;99542.16;;;15.82;80.10
30730;BME280;17476;48.458;7.928;2022-09-24T06:45:38;99553.13;;;15.79;80.50
30730;BME280;17476;48.458;7.928;2022-09-24T06:48:06;99547.84;;;15.79;80.43
30730;BME280;17476;48.458;7.928;2022-09-24T06:50:33;99551.69;;;15.76;80.79
30730;BME280;17476;48.458;7.928;2022-09-24T06:53:02;99553.94;;;15.79;80.40
30730;BME280;17476;48.458;7.928;2022-09-24T06:55:28;99552.91;;;15.80;78.66
30730;BME280;17476;48.458;7.928;2022-09-24T06:58:12;99559.34;;;15.91;78.73
30730;BME280;17476;48.458;7.928;2022-09-24T07:00:38;99563.41;;;16.00;79.40
30730;BME280;17476;48.458;7.928;2022-09-24T07:03:05;99563.19;;;16.02;80.37
30730;BME280;17476;48.458;7.928;2022-09-24T07:05:32;99559.53;;;16.03;81.86
30730;BME280;17476;48.458;7.928;2022-09-24T07:07:59;99559.97;;;15.93;80.13
30730;BME280;17476;48.458;7.928;2022-09-24T07:10:25;99553.91;;;15.93;80.81
30730;BME280;17476;48.458;7.928;2022-09-24T07:12:52;99552.44;;;15.97;81.51
30730;BME280;17476;48.458;7.928;2022-09-24T07:15:18;99566.44;;;15.97;80.03
30730;BME280;17476;48.458;7.928;2022-09-24T07:17:44;99559.16;;;15.99;80.23
30730;BME280;17476;48.458;7.928;2022-09-24T07:20:10;99564.81;;;16.03;80.40
30730;BME280;17476;48.458;7.928;2022-09-24T07:22:40;99563.59;;;16.05;80.29
30730;BME280;17476;48.458;7.928;2022-09-24T07:25:09;99561.94;;;16.11;81.21
30730;BME280;17476;48.458;7.928;2022-09-24T07:27:36;99559.50;;;16.09;82.99
30730;BME280;17476;48.458;7.928;2022-09-24T07:30:05;99565.41;;;16.05;83.65
30730;BME280;17476;48.458;7.928;2022-09-24T07:32:31;99563.16;;;16.08;84.60
30730;BME280;17476;48.458;7.928;2022-09-24T07:34:57;99566.25;;;15.99;84.58
30730;BME280;17476;48.458;7.928;2022-09-24T07:37:23;99567.69;;;15.95;84.38
30730;BME280;17476;48.458;7.928;2022-09-24T07:39:51;99570.91;;;15.97;84.84
30730;BME280;17476;48.458;7.928;2022-09-24T07:42:17;99569.06;;;15.97;84.95
30730;BME280;17476;48.458;7.928;2022-09-24T07:44:43;99572.31;;;16.06;86.48
30730;BME280;17476;48.458;7.928;2022-09-24T07:47:10;99570.50;;;16.00;86.19
30730;BME280;17476;48.458;7.928;2022-09-24T07:49:36;99572.94;;;15.95;86.82
30730;BME280;17476;48.458;7.928;2022-09-24T07:52:03;99574.19;;;15.92;87.07
30730;BME280;17476;48.458;7.928;2022-09-24T07:54:29;99570.53;;;15.93;87.34
30730;BME280;17476;48.458;7.928;2022-09-24T07:56:56;99577.22;;;15.82;89.91
30730;BME280;17476;48.458;7.928;2022-09-24T07:59:21;99571.38;;;15.80;88.77
30730;BME280;17476;48.458;7.928;2022-09-24T08:01:47;99569.31;;;15.82;88.93
30730;BME280;17476;48.458;7.928;2022-09-24T08:04:13;99569.31;;;15.89;90.15
30730;BME280;17476;48.458;7.928;2022-09-24T08:06:39;99572.94;;;15.95;90.41
30730;BME280;17476;48.458;7.928;2022-09-24T08:09:05;99568.03;;;16.05;90.02
30730;BME280;17476;48.458;7.928;2022-09-24T08:11:31;99571.47;;;16.12;90.85
30730;BME280;17476;48.458;7.928;2022-09-24T08:13:58;99571.28;;;16.07;89.53
30730;BME280;17476;48.458;7.928;2022-09-24T08:16:25;99576.56;;;16.07;91.69
30730;BME280;17476;48.458;7.928;2022-09-24T08:18:54;99581.84;;;16.07;90.27
30730;BME280;17476;48.458;7.928;2022-09-24T08:21:20;99582.19;;;16.17;91.67
30730;BME280;17476;48.458;7.928;2022-09-24T08:23:46;99585.63;;;16.24;91.59
30730;BME280;17476;48.458;7.928;2022-09-24T08:26:13;99584.22;;;16.22;91.75
30730;BME280;17476;48.458;7.928;2022-09-24T08:28:40;99590.34;;;16.16;92.21
30730;BME280;17476;48.458;7.928;2022-09-24T08:31:09;99591.16;;;16.16;92.54
30730;BME280;17476;48.458;7.928;2022-09-24T08:33:37;99595.19;;;16.19;92.32
30730;BME280;17476;48.458;7.928;2022-09-24T08:36:08;99596.41;;;16.23;92.52
30730;BME280;17476;48.458;7.928;2022-09-24T08:38:34;99593.53;;;16.24;92.77
30730;BME280;17476;48.458;7.928;2022-09-24T08:43:49;99588.16;;;16.51;91.88
30730;BME280;17476;48.458;7.928;2022-09-24T08:46:29;99589.72;;;16.58;92.58
30730;BME280;17476;48.458;7.928;2022-09-24T08:49:34;99599.44;;;16.71;91.33
30730;BME280;17476;48.458;7.928;2022-09-24T08:52:14;99596.81;;;16.71;92.48
30730;BME280;17476;48.458;7.928;2022-09-24T08:54:44;99594.34;;;16.76;90.89
30730;BME280;17476;48.458;7.928;2022-09-24T08:57:15;99592.44;;;16.90;88.94
30730;BME280;17476;48.458;7.928;2022-09-24T08:59:48;99593.59;;;17.01;86.01
30730;BME280;17476;48.458;7.928;2022-09-24T09:02:42;99595.16;;;17.33;86.23
30730;BME280;17476;48.458;7.928;2022-09-24T09:05:38;99595.09;;;17.40;86.27
30730;BME280;17476;48.458;7.928;2022-09-24T09:10:43;99599.75;;;17.44;85.55
30730;BME280;17476;48.458;7.928;2022-09-24T09:13:32;99601.72;;;17.56;85.64
30730;BME280;17476;48.458;7.928;2022-09-24T09:18:46;99602.59;;;17.93;84.71
30730;BME280;17476;48.458;7.928;2022-09-24T09:21:23;99593.69;;;18.06;84.53
30730;BME280;17476;48.458;7.928;2022-09-24T09:23:53;99584.34;;;18.21;83.18
30730;BME280;17476;48.458;7.928;2022-09-24T09:26:20;99590.91;;;18.19;83.87
30730;BME280;17476;48.458;7.928;2022-09-24T09:28:47;99585.03;;;18.17;83.52
30730;BME280;17476;48.458;7.928;2022-09-24T09:37:28;99606.03;;;17.75;83.95
30730;BME280;17476;48.458;7.928;2022-09-24T09:43:02;99608.50;;;17.45;85.77
30730;BME280;17476;48.458;7.928;2022-09-24T09:45:58;99606.38;;;17.54;85.59
30730;BME280;17476;48.458;7.928;2022-09-24T09:48:45;99607.00;;;17.56;84.38
30730;BME280;17476;48.458;7.928;2022-09-24T09:51:20;99616.31;;;17.58;85.11
30730;BME280;17476;48.458;7.928;2022-09-24T09:54:00;99606.06;;;17.68;84.91
30730;BME280;17476;48.458;7.928;2022-09-24T09:56:30;99610.44;;;17.81;84.25
30730;BME280;17476;48.458;7.928;2022-09-24T10:01:39;99595.16;;;18.01;83.11
30730;BME280;17476;48.458;7.928;2022-09-24T10:04:37;99597.00;;;18.01;82.55
30730;BME280;17476;48.458;7.928;2022-09-24T10:07:13;99598.09;;;17.93;83.20
30730;BME280;17476;48.458;7.928;2022-09-24T10:09:41;99605.44;;;17.91;82.45
30730;BME280;17476;48.458;7.928;2022-09-24T10:12:18;99589.94;;;17.95;82.23
30730;BME280;17476;48.458;7.928;2022-09-24T10:15:00;99603.84;;;17.90;82.24
30730;BME280;17476;48.458;7.928;2022-09-24T10:17:34;99605.00;;;17.76;83.52
30730;BME280;17476;48.458;7.928;2022-09-24T10:22:39;99602.75;;;17.98;83.00
30730;BME280;17476;48.458;7.928;2022-09-24T10:25:16;99592.28;;;18.21;82.08
30730;BME280;17476;48.458;7.928;2022-09-24T10:27:43;99598.63;;;18.20;83.45
30730;BME280;17476;48.458;7.928;2022-09-24T10:30:15;99594.53;;;18.54;82.17
30730;BME280;17476;48.458;7.928;2022-09-24T10:33:01;99593.63;;;18.61;81.50
30730;BME280;17476;48.458;7.928;2022-09-24T10:35:35;99592.81;;;18.60;79.27
30730;BME280;17476;48.458;7.928;2022-09-24T10:38:18;99592.84;;;18.42;79.44
30730;BME280;17476;48.458;7.928;2022-09-24T10:40:45;99589.28;;;18.18;79.29
30730;BME280;17476;48.458;7.928;2022-09-24T10:43:20;99590.81;;;18.25;79.88
30730;BME280;17476;48.458;7.928;2022-09-24T10:46:16;99594.06;;;18.09;81.71
30730;BME280;17476;48.458;7.928;2022-09-24T10:52:07;99585.03;;;18.17;81.25
30730;BME280;17476;48.458;7.928;2022-09-24T10:57:58;99576.13;;;17.93;84.26
30730;BME280;17476;48.458;7.928;2022-09-24T11:00:59;99577.91;;;18.17;82.97
30730;BME280;17476;48.458;7.928;2022-09-24T11:06:50;99578.13;;;18.16;83.56
30730;BME280;17476;48.458;7.928;2022-09-24T11:09:47;99580.78;;;18.16;83.11
30730;BME280;17476;48.458;7.928;2022-09-24T11:12:38;99575.59;;;18.39;82.19
30730;BME280;17476;48.458;7.928;2022-09-24T11:15:52;99584.41;;;18.33;80.47
30730;BME280;17476;48.458;7.928;2022-09-24T11:18:50;99581.53;;;18.35;81.18
30730;BME280;17476;48.458;7.928;2022-09-24T11:27:19;99573.75;;;18.40;80.56
30730;BME280;17476;48.458;7.928;2022-09-24T11:36:07;99558.16;;;18.62;78.67
30730;BME280;17476;48.458;7.928;2022-09-24T11:39:44;99558.38;;;18.78;77.45
30730;BME280;17476;48.458;7.928;2022-09-24T11:42:35;99553.34;;;19.00;78.05
30730;BME280;17476;48.458;7.928;2022-09-24T11:48:36;99551.22;;;18.79;74.83
30730;BME280;17476;48.458;7.928;2022-09-24T11:54:01;99546.13;;;19.19;74.11
30730;BME280;17476;48.458;7.928;2022-09-24T11:56:37;99539.66;;;19.50;72.34
30730;BME280;17476;48.458;7.928;2022-09-24T11:59:37;99534.72;;;19.66;73.30
30730;BME280;17476;48.458;7.928;2022-09-24T12:02:17;99530.28;;;19.95;70.80
30730;BME280;17476;48.458;7.928;2022-09-24T12:05:01;99518.22;;;20.15;70.15
30730;BME280;17476;48.458;7.928;2022-09-24T12:10:38;99512.19;;;20.77;68.35
30730;BME280;17476;48.458;7.928;2022-09-24T12:13:40;99520.22;;;20.99;67.62
30730;BME280;17476;48.458;7.928;2022-09-24T12:16:19;99506.81;;;21.61;66.93
30730;BME280;17476;48.458;7.928;2022-09-24T12:19:20;99500.06;;;22.73;67.42
30730;BME280;17476;48.458;7.928;2022-09-24T12:21:50;99500.06;;;23.48;58.32
30730;BME280;17476;48.458;7.928;2022-09-24T12:27:18;99498.78;;;24.28;53.42
30730;BME280;17476;48.458;7.928;2022-09-24T12:30:39;99496.75;;;24.86;55.25
30730;BME280;17476;48.458;7.928;2022-09-24T12:33:39;99496.88;;;25.61;50.55
30730;BME280;17476;48.458;7.928;2022-09-24T12:39:25;99492.25;;;26.76;50.35
30730;BME280;17476;48.458;7.928;2022-09-24T12:42:02;99483.66;;;27.08;45.11
30730;BME280;17476;48.458;7.928;2022-09-24T12:44:51;99477.56;;;27.50;46.32
30730;BME280;17476;48.458;7.928;2022-09-24T12:47:24;99474.72;;;27.65;46.65
30730;BME280;17476;48.458;7.928;2022-09-24T12:50:00;99473.09;;;27.88;45.60
30730;BME280;17476;48.458;7.928;2022-09-24T12:52:37;99478.56;;;28.02;45.52
30730;BME280;17476;48.458;7.928;2022-09-24T12:55:14;99474.56;;;27.99;43.82
30730;BME280;17476;48.458;7.928;2022-09-24T13:01:11;99471.44;;;28.81;44.31
30730;BME280;17476;48.458;7.928;2022-09-24T13:03:40;99464.66;;;29.30;41.25
30730;BME280;17476;48.458;7.928;2022-09-24T13:08:57;99468.16;;;28.84;39.34
30730;BME280;17476;48.458;7.928;2022-09-24T13:11:33;99465.31;;;28.62;38.56
30730;BME280;17476;48.458;7.928;2022-09-24T13:16:42;99456.66;;;27.90;38.66
30730;BME280;17476;48.458;7.928;2022-09-24T13:19:43;99455.03;;;28.13;41.95
30730;BME280;17476;48.458;7.928;2022-09-24T13:22:31;99456.31;;;27.30;39.56
30730;BME280;17476;48.458;7.928;2022-09-24T13:25:21;99439.38;;;27.53;44.27
30730;BME280;17476;48.458;7.928;2022-09-24T13:28:03;99444.91;;;27.86;42.43
30730;BME280;17476;48.458;7.928;2022-09-24T13:30:44;99443.34;;;26.84;40.29
30730;BME280;17476;48.458;7.928;2022-09-24T13:33:25;99438.91;;;26.69;45.14
30730;BME280;17476;48.458;7.928;2022-09-24T13:36:10;99438.69;;;27.42;42.62
30730;BME280;17476;48.458;7.928;2022-09-24T13:38:54;99429.63;;;27.14;40.11
30730;BME280;17476;48.458;7.928;2022-09-24T13:44:46;99430.34;;;26.96;37.50
30730;BME280;17476;48.458;7.928;2022-09-24T13:49:48;99417.41;;;26.40;44.60
30730;BME280;17476;48.458;7.928;2022-09-24T13:52:36;99411.88;;;26.60;44.95
30730;BME280;17476;48.458;7.928;2022-09-24T13:55:52;99409.91;;;26.71;43.83
30730;BME280;17476;48.458;7.928;2022-09-24T14:00:53;99414.88;;;25.70;43.43
30730;BME280;17476;48.458;7.928;2022-09-24T14:03:29;99418.00;;;25.28;46.29
30730;BME280;17476;48.458;7.928;2022-09-24T14:05:58;99416.47;;;25.07;45.93
30730;BME280;17476;48.458;7.928;2022-09-24T14:08:26;99404.94;;;24.96;45.83
30730;BME280;17476;48.458;7.928;2022-09-24T14:11:21;99416.44;;;24.96;47.42
30730;BME280;17476;48.458;7.928;2022-09-24T14:13:49;99419.38;;;25.10;45.64
30730;BME280;17476;48.458;7.928;2022-09-24T14:16:24;99409.13;;;25.32;45.79
30730;BME280;17476;48.458;7.928;2022-09-24T14:19:04;99412.56;;;25.48;46.53
30730;BME280;17476;48.458;7.928;2022-09-24T14:21:38;99408.31;;;25.37;46.80
30730;BME280;17476;48.458;7.928;2022-09-24T14:24:38;99403.03;;;25.27;47.03
30730;BME280;17476;48.458;7.928;2022-09-24T14:27:10;99403.28;;;25.30;47.19
30730;BME280;17476;48.458;7.928;2022-09-24T14:30:04;99395.31;;;25.10;44.95
30730;BME280;17476;48.458;7.928;2022-09-24T14:32:34;99401.19;;;24.92;41.61
30730;BME280;17476;48.458;7.928;2022-09-24T14:35:15;99400.72;;;24.49;43.09
30730;BME280;17476;48.458;7.928;2022-09-24T14:37:51;99405.22;;;24.23;45.37
30730;BME280;17476;48.458;7.928;2022-09-24T14:40:20;99401.72;;;23.87;45.31
30730;BME280;17476;48.458;7.928;2022-09-24T14:42:58;99405.06;;;23.57;46.44
30730;BME280;17476;48.458;7.928;2022-09-24T14:45:33;99402.53;;;23.25;46.28
30730;BME280;17476;48.458;7.928;2022-09-24T14:48:17;99408.19;;;22.86;48.03
30730;BME280;17476;48.458;7.928;2022-09-24T14:50:44;99410.28;;;22.84;49.33
30730;BME280;17476;48.458;7.928;2022-09-24T14:53:29;99409.72;;;22.82;49.61
30730;BME280;17476;48.458;7.928;2022-09-24T14:55:55;99405.63;;;22.69;50.54
30730;BME280;17476;48.458;7.928;2022-09-24T15:01:12;99410.91;;;22.59;51.04
30730;BME280;17476;48.458;7.928;2022-09-24T15:03:50;99416.97;;;22.49;53.23
30730;BME280;17476;48.458;7.928;2022-09-24T15:06:28;99413.25;;;22.50;49.71